Terminal Aerodrome Forecast
Issued by NWS

Home | Current Version | Previous Version | Text Only | Print | Product List | Glossary On
Versions: 1 2 3 4 5 6 7 8 9 10 11 12 13 14
000
FTUS45 KPIH 051120
TAFSUN
TAF
KSUN 051120Z 0512/0612 30006KT P6SM VCSH OVC100
     FM051600 21014G22KT P6SM VCTS SCT060 BKN090CB
     FM060200 29010KT P6SM SCT090
     FM060400 32008KT P6SM SKC
      AMD LTD TO CLD VIS AND WIND TIL 051300=

USA.gov is the U.S. government's official web portal to all federal, state and local government web resources and services.